^^
Station Historical Data
 
Daily Summary for December 17, 2017 Units:  English    Metric   Both
« Previous Day
Next Day »
Daily Weekly Monthly Yearly Custom
  Current: High: Low: Average:
Temperature: 46.9 °F 57.4 °F 46.9 °F 52.3 °F
Dew Point: 43.3 °F 45.1 °F 26.2 °F 40.1 °F
Humidity: 87 % 87 % 34 % 65 %
Wind Speed: 6.9 mph 11 mph 0 mph 3.1 mph
Wind Gust: 6.9 mph 11 mph - -
Wind:North - - SE
Pressure: 29.9 in 29.9 in 29.8 in -
Precipitation: 0.09 in      
Historical Graphs
 
 
Tabular Data for December 17, 2017
Time Temperature Dew Point Pressure Wind Wind Speed Wind Gust Humidity Rainfall Rate (Hourly) solar Conditions
00:00 53.2 °F 26.2 °F 29.8 in ESE 1.2 mph   35 % 0 in 0.0 W/m2 CLR
00:03 53.2 °F 26.2 °F 29.8 in ESE 1.2 mph 1.2 mph 35 % 0 in 0.0 W/m2 BKN
00:08 53.4 °F 26.4 °F 29.8 in ESE 1.2 mph 1.2 mph 35 % 0 in 0.0 W/m2 BKN
00:10 53.4 °F 26.4 °F 29.8 in ESE 1.2 mph 1.2 mph 35 % 0 in 0.0 W/m2 BKN
00:15 53.8 °F 26.8 °F 29.8 in ESE 3.5 mph 3.5 mph 35 % 0 in 0.0 W/m2 BKN
00:16 53.8 °F 26.8 °F 29.8 in ESE 2.3 mph 2.3 mph 35 % 0 in 0.0 W/m2 BKN
00:21 54.3 °F 27.3 °F 29.8 in East 2.3 mph 2.3 mph 35 % 0 in 0.0 W/m2 BKN
00:22 54.7 °F 27.5 °F 29.8 in ESE 3.5 mph 3.5 mph 35 % 0 in 0.0 W/m2 BKN
00:27 55 °F 27.1 °F 29.8 in ESE 3.5 mph 3.5 mph 34 % 0 in 0.0 W/m2 BKN
00:28 55.2 °F 27.3 °F 29.8 in ESE 3.5 mph 3.5 mph 34 % 0 in 0.0 W/m2 BKN
00:30 55.4 °F 27.5 °F 29.8 in ENE 3.5 mph 3.5 mph 34 % 0 in 0.0 W/m2 BKN
00:35 55.8 °F 29.1 °F 29.8 in East 2.3 mph 2.3 mph 36 % 0 in 0.0 W/m2 BKN
00:37 55.9 °F 30 °F 29.8 in ESE 2.3 mph 2.3 mph 37 % 0 in 0.0 W/m2 BKN
00:42 55.9 °F 28.8 °F 29.8 in ENE 1.2 mph 1.2 mph 35 % 0 in 0.0 W/m2 BKN
00:47 56.1 °F 29.7 °F 29.8 in ENE 3.5 mph 3.5 mph 36 % 0 in 0.0 W/m2 BKN
00:51 56.1 °F 29.7 °F 29.8 in ENE 2.3 mph 2.3 mph 36 % 0 in 0.0 W/m2 BKN
00:56 56.3 °F 29.7 °F 29.8 in East 3 mph 3 mph 36 % 0 in 0.0 W/m2 BKN
00:57 56.3 °F 30.4 °F 29.8 in East 3.5 mph 3.5 mph 37 % 0 in 0.0 W/m2 BKN
01:02 56.5 °F 31.6 °F 29.8 in East 3.5 mph 3.5 mph 39 % 0 in 0.0 W/m2 BKN
01:05 56.7 °F 31.8 °F 29.8 in ESE 4 mph 4 mph 39 % 0 in 0.0 W/m2 BKN
01:07 56.7 °F 32.5 °F 29.8 in ENE 2.3 mph 2.3 mph 40 % 0 in 0.0 W/m2 BKN
01:11 56.8 °F 32.7 °F 29.8 in East 4.6 mph 4.6 mph 40 % 0 in 0.0 W/m2 BKN
01:16 57 °F 32.9 °F 29.8 in SE 3.5 mph 3.5 mph 40 % 0 in 0.0 W/m2 BKN
01:20 57 °F 33.1 °F 29.8 in ENE 2.3 mph 2.3 mph 40 % 0 in 0.0 W/m2 BKN
01:23 57.2 °F 34.3 °F 29.8 in ESE 4.6 mph 4.6 mph 42 % 0 in 0.0 W/m2 BKN
01:26 57.4 °F 36.1 °F 29.8 in SSE 3.5 mph 3.5 mph 45 % 0 in 0.0 W/m2 BKN
01:29 57.4 °F 36.1 °F 29.8 in ESE 2.3 mph 2.3 mph 45 % 0 in 0.0 W/m2 BKN
01:33 57.2 °F 36 °F 29.8 in NE 3.5 mph 3.5 mph 45 % 0 in 0.0 W/m2 BKN
01:38 57 °F 36.5 °F 29.8 in ESE 3.5 mph 3.5 mph 46 % 0 in 0.0 W/m2 BKN
01:42 57 °F 41.2 °F 29.8 in South 2.3 mph 2.3 mph 55 % 0.01 in 0.0 W/m2 RA
01:44 56.8 °F 41.4 °F 29.8 in NNE 3.5 mph 3.5 mph 56 % 0.02 in 0.0 W/m2 RA
01:49 55.9 °F 43.2 °F 29.8 in NNE 2.3 mph 2.3 mph 62 % 0.02 in 0.0 W/m2 RA
01:50 55.9 °F 43.2 °F 29.8 in NNE 2.3 mph 2.3 mph 62 % 0.02 in 0.0 W/m2 RA
01:51 55.6 °F 43.2 °F 29.8 in NE 1.2 mph 1.2 mph 63 % 0.02 in 0.0 W/m2 RA
01:56 54.7 °F 41.9 °F 29.8 in ESE 3.5 mph 3.5 mph 62 % 0.02 in 0.0 W/m2 BKN
02:01 54.1 °F 41.9 °F 29.8 in ENE 3 mph 3 mph 63 % 0.02 in 0.0 W/m2 OVC
02:02 54.1 °F 41.4 °F 29.8 in WSW 3.5 mph 3.5 mph 62 % 0.02 in 0.0 W/m2 OVC
02:07 53.8 °F 41.5 °F 29.8 in SW 5.8 mph 5.8 mph 63 % 0.03 in 0.0 W/m2 RA
02:08 53.8 °F 41.7 °F 29.8 in SSW 3.5 mph 3.5 mph 64 % 0.03 in 0.0 W/m2 RA
02:10 53.8 °F 42.3 °F 29.8 in SW 3.5 mph 3.5 mph 65 % 0.03 in 0.0 W/m2 RA
02:15 53.6 °F 42.4 °F 29.8 in SW 1.2 mph 1.2 mph 66 % 0.03 in 0.0 W/m2 RA
02:19 53.2 °F 42.6 °F 29.8 in SW 1.2 mph 1.2 mph 67 % 0.03 in 0.0 W/m2 OVC
02:24 53.1 °F 42.8 °F 29.8 in SW 2.3 mph 2.3 mph 68 % 0.03 in 0.0 W/m2 OVC
02:27 52.9 °F 43 °F 29.8 in SW 1.2 mph 1.2 mph 69 % 0.03 in 0.0 W/m2 OVC
02:32 52.5 °F 43.3 °F 29.8 in SW 1 mph 1 mph 71 % 0.03 in 0.0 W/m2 OVC
02:35 52.3 °F 43.2 °F 29.8 in SW 2.3 mph 2.3 mph 71 % 0.03 in 0.0 W/m2 OVC
02:38 52.2 °F 43 °F 29.8 in NW 1.2 mph 1.2 mph 71 % 0.03 in 0.0 W/m2 OVC
02:43 52 °F 41.4 °F 29.8 in ENE 2.3 mph 2.3 mph 67 % 0.01 in 0.0 W/m2 OVC
02:44 52 °F 41.4 °F 29.8 in North 3.5 mph 3.5 mph 67 % 0.01 in 0.0 W/m2 OVC
02:48 52.2 °F 42.1 °F 29.8 in ESE 2.3 mph 2.3 mph 68 % 0.01 in 0.0 W/m2 OVC
02:53 52.5 °F 43 °F 29.8 in NNE 3 mph 3 mph 70 % 0.01 in 0.0 W/m2 OVC
02:55 52.9 °F 43.7 °F 29.8 in NNE 4.6 mph 4.6 mph 71 % 0.01 in 0.0 W/m2 OVC
02:58 52.9 °F 44.1 °F 29.8 in NE 3.5 mph 3.5 mph 72 % 0.01 in 0.0 W/m2 OVC
03:03 53.1 °F 44.8 °F 29.8 in NE 3.5 mph 3.5 mph 73 % 0.01 in 0.0 W/m2 BKN
03:05 53.1 °F 44.8 °F 29.8 in NE 1 mph 4 mph 73 % 0 in 0.0 W/m2 BKN
03:10 53.2 °F 45.1 °F 29.8 in NNE 1.2 mph 1.2 mph 74 % 0 in 0.0 W/m2 BKN
03:11 53.2 °F 44.8 °F 29.8 in NNE 2.3 mph 2.3 mph 73 % 0 in 0.0 W/m2 BKN
03:16 53.2 °F 44.8 °F 29.8 in NNE 1.2 mph 1.2 mph 73 % 0 in 0.0 W/m2 BKN
03:21 53.2 °F 45.1 °F 29.8 in NE 2.3 mph 2.3 mph 74 % 0 in 0.0 W/m2 BKN
03:23 53.2 °F 45.1 °F 29.8 in NE 1.2 mph   74 % 0 in 0.0 W/m2 BKN
03:28 53.2 °F 45.1 °F 29.8 in ENE 1.2 mph 1.2 mph 74 % 0 in 0.0 W/m2 BKN
03:30 53.2 °F 45.1 °F 29.8 in ENE 2.3 mph 2.3 mph 74 % 0 in 0.0 W/m2 BKN
03:35 53.2 °F 45.1 °F 29.8 in ENE 2.3 mph 2.3 mph 74 % 0 in 0.0 W/m2 BKN
03:40 53.2 °F 44.8 °F 29.8 in SE 2.3 mph 2.3 mph 73 % 0 in 0.0 W/m2 BKN
03:42 53.2 °F 44.4 °F 29.8 in SSE 6 mph 6 mph 72 % 0 in 0.0 W/m2 BKN
03:47 53.8 °F 43.2 °F 29.8 in ESE 6.9 mph 6.9 mph 67 % 0 in 0.0 W/m2 BKN
03:50 54 °F 43 °F 29.8 in ESE 8.1 mph 8.1 mph 66 % 0 in 0.0 W/m2 BKN
03:57 54.5 °F 42.6 °F 29.8 in ENE 5.8 mph 5.8 mph 64 % 0 in 0.0 W/m2 BKN
04:00 54.7 °F 42.3 °F 29.8 in ENE 7 mph 7 mph 63 % 0 in 0.0 W/m2 BKN
04:04 54.7 °F 41.7 °F 29.8 in ESE 4 mph 4 mph 62 % 0 in 0.0 W/m2 -RA
04:06 54.7 °F 41.7 °F 29.8 in East 4.6 mph 4.6 mph 62 % 0 in 0.0 W/m2 -RA
04:08 54.5 °F 41.4 °F 29.8 in SE 4.6 mph 4.6 mph 61 % 0 in 0.0 W/m2 -RA
04:12 54.5 °F 41.4 °F 29.8 in South 3.5 mph 3.5 mph 61 % 0 in 0.0 W/m2 -RA
04:17 54.3 °F 41.5 °F 29.8 in SE 4 mph 4 mph 62 % 0 in 0.0 W/m2 -RA
04:18 54.1 °F 41.5 °F 29.8 in East 6.9 mph 6.9 mph 62 % 0 in 0.0 W/m2 -RA
04:22 54 °F 41.5 °F 29.8 in NNE 6.9 mph 6.9 mph 63 % 0 in 0.0 W/m2 -RA
04:25 53.8 °F 41.7 °F 29.8 in ENE 3.5 mph 3.5 mph 64 % 0 in 0.0 W/m2 -RA
04:30 53.4 °F 42.3 °F 29.8 in East 3.5 mph 3.5 mph 66 % 0 in 0.0 W/m2 -RA
04:31 53.2 °F 42.3 °F 29.8 in East 6.9 mph 6.9 mph 66 % 0 in 0.0 W/m2 -RA
04:36 53.1 °F 42.3 °F 29.8 in SE 4.6 mph 4.6 mph 67 % 0 in 0.0 W/m2 -RA
04:38 53.1 °F 42.3 °F 29.8 in ESE 3.5 mph 3.5 mph 67 % 0 in 0.0 W/m2 -RA
04:43 52.9 °F 42.4 °F 29.8 in SSE 3.5 mph 3.5 mph 68 % 0 in 0.0 W/m2 -RA
04:44 52.9 °F 42.4 °F 29.8 in SSE 4 mph 4 mph 68 % 0 in 0.0 W/m2 -RA
04:49 52.5 °F 42.6 °F 29.8 in SE 5 mph 5 mph 69 % 0 in 0.0 W/m2 -RA
04:50 52.5 °F 42.6 °F 29.8 in SE 4.6 mph 4.6 mph 69 % 0 in 0.0 W/m2 -RA
04:55 52.2 °F 42.6 °F 29.8 in East 2.3 mph 2.3 mph 70 % 0 in 0.0 W/m2 -RA
04:57 52.2 °F 42.6 °F 29.8 in ENE 3 mph 3 mph 70 % 0 in 0.0 W/m2 -RA
04:58 52.2 °F 42.6 °F 29.8 in East 3.5 mph 3.5 mph 70 % 0 in 0.0 W/m2 -RA
05:03 52 °F 42.1 °F 29.8 in East 3.5 mph 3.5 mph 69 % 0 in 0.0 W/m2 CLR
05:08 52 °F 41.4 °F 29.8 in ENE 3.5 mph 3.5 mph 67 % 0 in 0.0 W/m2 CLR
05:12 52.2 °F 41.5 °F 29.8 in ENE 3.5 mph 3.5 mph 67 % 0 in 0.0 W/m2 CLR
05:18 52.2 °F 41.9 °F 29.8 in SSW 2.3 mph 2.3 mph 68 % 0 in 0.0 W/m2 CLR
05:21 52 °F 42.1 °F 29.8 in South 2.3 mph 2.3 mph 69 % 0 in 0.0 W/m2 CLR
05:25 51.8 °F 42.3 °F 29.8 in SSW 4 mph 4 mph 70 % 0 in 0.0 W/m2 CLR
05:30 51.4 °F 42.4 °F 29.8 in South 1.2 mph   71 % 0 in 0.0 W/m2 CLR
05:32 51.4 °F 42.4 °F 29.8 in South 2.3 mph 2.3 mph 71 % 0 in 0.0 W/m2 CLR
05:33 51.4 °F 42.3 °F 29.8 in South 2.3 mph 2.3 mph 71 % 0 in 0.0 W/m2 CLR
05:38 51.1 °F 42.4 °F 29.8 in South 1.2 mph 1.2 mph 72 % 0 in 0.0 W/m2 CLR
05:44 50.7 °F 42.1 °F 29.8 in South 1 mph 1 mph 72 % 0 in 0.0 W/m2 CLR
05:49 50.7 °F 42.1 °F 29.8 in Calm     72 % 0 in 0.0 W/m2 CLR
05:52 50.5 °F 41.9 °F 29.8 in Calm     72 % 0 in 0.0 W/m2 CLR
05:54 50.5 °F 41.7 °F 29.8 in Calm     72 % 0 in 0.0 W/m2 CLR
05:57 50.4 °F 41.7 °F 29.8 in South 1.2 mph 1.2 mph 72 % 0 in 0.0 W/m2 CLR
05:58 50.4 °F 41.7 °F 29.8 in South 1.2 mph 1.2 mph 72 % 0 in 0.0 W/m2 CLR
06:03 50.2 °F 41.7 °F 29.8 in South 1.2 mph   73 % 0 in 0.0 W/m2 CLR
06:04 50.2 °F 41.7 °F 29.8 in South 1.2 mph 1.2 mph 73 % 0 in 0.0 W/m2 CLR
06:09 49.8 °F 41.5 °F 29.8 in South 2.3 mph 2.3 mph 73 % 0 in 0.0 W/m2 CLR
06:10 49.8 °F 41.5 °F 29.8 in South 2.3 mph 2.3 mph 73 % 0 in 0.0 W/m2 CLR
06:12 49.6 °F 41.7 °F 29.8 in Calm     74 % 0 in 0.0 W/m2 CLR
06:16 49.5 °F 41.5 °F 29.8 in South 1.2 mph   74 % 0 in 0.0 W/m2 CLR
06:21 49.5 °F 41.5 °F 29.8 in Calm     74 % 0 in 0.0 W/m2 CLR
06:23 49.5 °F 41.5 °F 29.8 in South 1.2 mph   74 % 0 in 0.0 W/m2 CLR
06:27 49.3 °F 41.4 °F 29.8 in Calm     74 % 0 in 0.0 W/m2 CLR
06:32 49.1 °F 41.2 °F 29.8 in Calm     74 % 0 in 0.0 W/m2 CLR
06:33 49.1 °F 41.2 °F 29.8 in Calm     74 % 0 in 0.0 W/m2 CLR
06:38 49.1 °F 41.2 °F 29.8 in South 1.2 mph 1.2 mph 74 % 0 in 0.0 W/m2 CLR
06:43 48.9 °F 41.2 °F 29.8 in Calm     74 % 0 in 0.0 W/m2 CLR
06:48 48.9 °F 41.2 °F 29.8 in Calm     74 % 0 in 0.0 W/m2 CLR
06:49 48.9 °F 41.4 °F 29.8 in South 1.2 mph   75 % 0 in 0.0 W/m2 CLR
06:54 48.9 °F 41.4 °F 29.8 in Calm     75 % 0 in 0.0 W/m2 CLR
06:55 48.9 °F 41.4 °F 29.8 in South 1.2 mph 1.2 mph 75 % 0 in 0.0 W/m2 CLR
06:57 48.9 °F 41.4 °F 29.8 in Calm     75 % 0 in 0.0 W/m2 CLR
07:02 49.1 °F 41.2 °F 29.8 in South 2 mph 2 mph 74 % 0 in 0.0 W/m2 CLR
07:08 49.5 °F 41.5 °F 29.9 in SSW 4 mph 4 mph 74 % 0 in 0.0 W/m2 CLR
07:09 49.5 °F 41.5 °F 29.9 in SSW 6.9 mph 6.9 mph 74 % 0 in 0.0 W/m2 CLR
07:14 49.8 °F 40.8 °F 29.9 in WSW 11 mph 11 mph 71 % 0 in 0.0 W/m2 CLR
07:19 50 °F 41.4 °F 29.9 in WSW 9.2 mph 9.2 mph 72 % 0 in 0.0 W/m2 CLR
07:22 49.8 °F 41.5 °F 29.9 in SW 10 mph 10 mph 73 % 0 in 0.0 W/m2 CLR
07:27 49.5 °F 42.1 °F 29.9 in SW 8.1 mph 8.1 mph 76 % 0.01 in 0.0 W/m2 RA
07:28 49.3 °F 42.1 °F 29.9 in SW 9 mph 9 mph 76 % 0.01 in 0.0 W/m2 RA
07:33 48.7 °F 42.1 °F 29.9 in SW 3.5 mph 3.5 mph 78 % 0.02 in 0.0 W/m2 RA
07:34 48.6 °F 42.4 °F 29.9 in SW 3.5 mph 3.5 mph 79 % 0.02 in 0.0 W/m2 RA
07:35 48.6 °F 42.4 °F 29.9 in SW 3.5 mph 3.5 mph 79 % 0.02 in 0.0 W/m2 RA
07:40 48.4 °F 42.4 °F 29.9 in SSW 1.2 mph 1.2 mph 80 % 0.03 in 0.0 W/m2 RA
07:44 48.2 °F 42.6 °F 29.9 in Calm     81 % 0 in 0.0 W/m2 RA
07:45 48.2 °F 42.6 °F 29.9 in Calm     81 % 0.03 in 0.0 W/m2 RA
07:50 48 °F 42.8 °F 29.9 in NW 3.5 mph 3.5 mph 82 % 0.03 in 0.0 W/m2
07:55 47.7 °F 42.8 °F 29.9 in NNW 3.5 mph 3.5 mph 83 % 0.04 in 5.0 W/m2 RA
07:56 47.7 °F 42.8 °F 29.9 in NNW 3.5 mph 3.5 mph 83 % 0.04 in 5.0 W/m2 RA
08:01 47.5 °F 43 °F 29.9 in North 9.2 mph 9.2 mph 84 % 0.05 in 7.0 W/m2 RA
08:03 47.5 °F 42.8 °F 29.9 in NNE 7 mph 7 mph 84 % 0.05 in 7.0 W/m2 RA
08:08 47.3 °F 43 °F 29.9 in North 6.9 mph 6.9 mph 85 % 0.06 in 9.0 W/m2 RA
08:09 47.1 °F 43 °F 29.9 in NNE 5.8 mph 5.8 mph 85 % 0.06 in 11.0 W/m2 RA
08:14 47.1 °F 43.2 °F 29.9 in North 6.9 mph 6.9 mph 86 % 0.06 in 19.0 W/m2 RA
08:16 47.1 °F 43.2 °F 29.9 in NNE 3.5 mph 3.5 mph 86 % 0.06 in 23.0 W/m2 RA
08:20 47.1 °F 43.2 °F 29.9 in North 3.5 mph 3.5 mph 86 % 0.06 in 35.0 W/m2 OVC
08:23 46.9 °F 43.3 °F 29.9 in North 6.9 mph 6.9 mph 87 % 0.06 in 40.0 W/m2 OVC
Countryside Manor, Tucson, AZ, USA
Compliments of Weather Underground - 3.75 mb